Latest Weather Observations for Temora

IDN60801

Issued at 10:05 pm EDT Friday 24 October 2014 (issued every 30 minutes, with the page automatically refreshed every 10 minutes)

About weather observations | Map of weather stations | Latest weather observations for NSW | Other Formats
Station Details ID: 073151 Name: TEMORA AIRPORT Lat: -34.43 Lon: 147.51 Height: 280.5 m
Data from the previous 72 hours. | See also: Recent months at Temora
Date/Time
EDT
Temp
°C
App
Temp
°C
Dew
Point
Rel
Hum
%
Delta-T
°C
Wind Press
QNH
hPa
Press
MSL
hPa
Rain
since 9 am
mm
Dir
 
Spd
km/h
Gust
km/h
Spd
kts
Gust
kts
24/10:00pm 21.5 18.3 3.2 30 8.8 WSW 9 13 5 7 1015.1 1014.6 0.0
24/09:30pm 22.2 18.8 3.8 30 9.0 WSW 11 13 6 7 1015.0 1014.5 0.0
24/09:00pm 23.3 19.6 4.3 29 9.5 WSW 13 15 7 8 1014.5 1014.1 0.0
24/08:30pm 24.9 21.3 5.2 28 10.1 WSW 13 17 7 9 1014.0 1013.6 0.0
24/08:00pm 27.3 22.9 5.0 24 11.6 WSW 17 24 9 13 1013.6 1013.2 0.0
24/07:30pm 28.9 24.8 6.3 24 12.1 SW 17 28 9 15 1013.1 1012.7 0.0
24/07:00pm 30.2 25.5 6.1 22 13.0 WSW 20 32 11 17 1012.7 1012.3 0.0
24/06:30pm 30.6 26.0 5.8 21 13.3 SW 19 30 10 16 1012.2 1011.7 0.0
24/06:00pm 31.5 26.9 5.8 20 13.8 WSW 19 28 10 15 1011.8 1011.3 0.0
24/05:30pm 31.8 27.3 6.8 21 13.7 WSW 20 28 11 15 1011.5 1011.0 0.0
24/05:00pm 32.0 26.4 5.5 19 14.2 WSW 24 35 13 19 1011.4 1010.9 0.0
24/04:30pm 32.5 26.4 6.7 20 14.2 WSW 28 43 15 23 1011.4 1010.9 0.0
24/04:00pm 34.0 29.6 4.6 16 15.8 W 17 32 9 17 1010.7 1010.3 0.0
24/03:30pm 35.0 30.2 4.5 15 16.4 W 19 32 10 17 1011.1 1010.6 0.0
24/03:00pm 36.0 30.2 4.3 14 17.1 WSW 24 33 13 18 1011.3 1010.8 0.0
24/02:30pm 34.7 30.9 7.7 19 15.2 WNW 17 28 9 15 1011.9 1011.4 0.0
24/02:00pm 34.2 29.9 8.0 20 14.8 NNW 20 30 11 16 1012.5 1012.1 0.0
24/01:30pm 33.5 29.1 7.5 20 14.5 WNW 20 24 11 13 1012.9 1012.5 0.0
24/01:00pm 33.9 29.4 8.5 21 14.5 NNW 22 30 12 16 1013.3 1012.9 0.0
24/12:30pm 32.1 26.8 8.4 23 13.3 NNW 26 35 14 19 1013.6 1013.2 0.0
24/12:00pm 31.6 26.3 8.6 24 13.0 N 26 37 14 20 1014.1 1013.7 0.0
24/11:30am 30.7 24.4 9.0 26 12.3 N 32 39 17 21 1014.7 1014.3 0.0
24/11:00am 29.7 23.9 9.3 28 11.5 N 30 39 16 21 1015.2 1014.7 0.0
24/10:30am 28.6 21.8 9.3 30 10.8 N 35 44 19 24 1015.5 1015.1 0.0
24/10:00am 27.8 21.2 10.1 33 10.0 N 35 46 19 25 1015.7 1015.3 0.0
24/09:30am 27.0 21.0 10.2 35 9.5 N 32 48 17 26 1016.3 1015.9 0.0
24/09:25am 26.8 21.3 10.5 36 9.3 N 30 48 16 26 1016.2 1015.8 0.0
24/09:00am 24.8 19.9 9.9 39 8.3 NNE 26 43 14 23 1016.5 1016.1 0.0
24/08:30am 23.0 20.2 11.4 48 6.6 NNE 17 22 9 12 1016.7 1016.3 0.0
24/08:00am 20.7 18.9 12.1 58 4.9 ENE 13 15 7 8 1016.9 1016.5 0.0
24/07:30am 18.7 16.9 12.0 65 3.8 ENE 13 17 7 9 1016.9 1016.5 0.0
24/07:00am 18.0 15.7 11.8 67 3.4 NE 15 20 8 11 1016.4 1016.0 0.0
24/06:30am 17.8 15.5 11.6 67 3.4 ENE 15 20 8 11 1016.3 1015.9 0.0
24/06:00am 17.8 14.7 11.6 67 3.4 ENE 19 28 10 15 1016.0 1015.6 0.0
24/05:30am 17.8 15.1 11.6 67 3.4 ENE 17 24 9 13 1015.9 1015.5 0.0
24/05:00am 18.4 15.7 11.7 65 3.7 ENE 17 24 9 13 1016.0 1015.6 0.0
24/04:30am 18.2 15.8 11.5 65 3.7 ENE 15 20 8 11 1015.9 1015.5 0.0
24/04:00am 18.3 16.0 11.6 65 3.7 ENE 15 20 8 11 1016.1 1015.7 0.0
24/03:30am 18.6 16.3 11.9 65 3.7 E 15 20 8 11 1016.1 1015.7 0.0
24/03:00am 18.4 16.1 11.7 65 3.7 ENE 15 19 8 10 1016.4 1016.0 0.0
24/02:30am 18.9 16.2 11.7 63 4.0 ENE 17 20 9 11 1016.3 1015.9 0.0
24/02:00am 19.3 16.0 11.6 61 4.3 ENE 20 26 11 14 1016.2 1015.8 0.0
24/01:30am 19.9 16.6 11.7 59 4.6 ENE 20 30 11 16 1016.4 1016.0 0.0
24/01:00am 21.0 16.6 11.6 55 5.3 ENE 26 33 14 18 1016.5 1016.1 0.0
24/12:30am 20.9 17.3 11.8 56 5.1 E 22 32 12 17 1016.7 1016.3 0.0
24/12:00am 21.8 17.7 11.5 52 5.8 ENE 24 32 13 17 1016.8 1016.4 0.0
 
Date/Time
EDT
Temp
°C
App
Temp
°C
Dew
Point
Rel
Hum
%
Delta-T
°C
Wind Press
QNH
hPa
Press
MSL
hPa
Rain
since 9 am
mm
Dir
 
Spd
km/h
Gust
km/h
Spd
kts
Gust
kts
23/11:30pm 22.4 17.2 11.5 50 6.2 ENE 30 46 16 25 1017.1 1016.7 0.0
23/11:20pm 22.8 16.5 11.2 48 6.5 E 35 44 19 24 1016.8 1016.4 0.0
23/11:00pm 22.2 19.5 11.6 51 6.0 ENE 17 22 9 12 1016.9 1016.5 0.0
23/10:30pm 22.2 19.9 11.6 51 6.0 E 15 22 8 12 1016.1 1015.7 0.0
23/10:00pm 23.7 19.9 9.7 41 7.7 E 20 26 11 14 1015.9 1015.5 0.0
23/09:30pm 25.6 22.1 8.6 34 9.3 E 17 24 9 13 1015.8 1015.4 0.0
23/09:00pm 25.9 22.7 7.0 30 10.1 ENE 13 15 7 8 1015.2 1014.7 0.0
23/08:30pm 26.2 23.4 6.8 29 10.3 ENE 11 13 6 7 1014.9 1014.4 0.0
23/08:00pm 27.2 24.4 7.1 28 10.8 NE 11 15 6 8 1014.4 1014.0 0.0
23/07:30pm 27.7 24.9 7.0 27 11.1 NE 11 13 6 7 1014.1 1013.7 0.0
23/07:00pm 29.2 25.6 6.6 24 12.2 NNE 15 19 8 10 1014.0 1013.6 0.0
23/06:30pm 31.0 27.4 6.8 22 13.2 N 15 19 8 10 1013.9 1013.5 0.0
23/06:00pm 32.3 28.1 5.7 19 14.4 N 17 26 9 14 1014.0 1013.6 0.0
23/05:30pm 32.9 29.6 6.2 19 14.6 NNE 13 19 7 10 1014.1 1013.7 0.0
23/05:00pm 33.2 28.8 4.9 17 15.2 NNW 17 24 9 13 1014.2 1013.8 0.0
23/04:30pm 33.3 30.6 5.8 18 14.9 NE 9 19 5 10 1014.4 1014.0 0.0
23/04:00pm 33.2 29.0 5.7 18 14.9 N 17 24 9 13 1014.7 1014.3 0.0
23/03:30pm 33.5 29.7 7.5 20 14.5 N 17 26 9 14 1015.0 1014.5 0.0
23/03:00pm 32.5 28.5 5.1 18 14.7 NNW 15 20 8 11 1015.4 1014.9 0.0
23/02:30pm 31.2 27.0 5.6 20 13.7 N 17 26 9 14 1015.8 1015.4 0.0
23/02:00pm 32.1 29.8 9.0 24 13.1 NNE 11 19 6 10 1016.2 1015.8 0.0
23/01:30pm 30.9 27.6 9.7 27 12.1 NNE 17 26 9 14 1016.7 1016.3 0.0
23/01:00pm 29.0 25.4 10.6 32 10.6 NNE 20 28 11 15 1017.0 1016.6 0.0
23/12:30pm 29.3 26.9 11.4 33 10.4 NE 15 22 8 12 1017.4 1017.0 0.0
23/12:00pm 27.0 24.5 11.1 37 9.1 NE 15 22 8 12 1017.8 1017.4 0.0
23/11:30am 26.9 23.4 11.0 37 9.1 N 20 24 11 13 1018.0 1017.6 0.0
23/11:00am 24.7 22.2 10.9 42 7.8 NE 15 20 8 11 1018.6 1018.2 0.0
23/10:30am 23.4 20.8 10.8 45 7.1 ENE 15 20 8 11 1019.2 1018.8 0.0
23/10:00am 23.8 21.0 11.5 46 7.0 N 17 22 9 12 1018.8 1018.4 0.0
23/09:30am 22.5 20.9 11.6 50 6.2 N 11 15 6 8 1019.6 1019.2 0.0
23/09:00am 22.6 21.7 11.4 49 6.3 E 7 11 4 6 1019.6 1019.2 0.0
23/08:30am 21.8 20.1 12.4 55 5.4 ENE 13 15 7 8 1019.1 1018.7 0.0
23/08:00am 19.1 18.4 12.1 64 3.9 ENE 7 11 4 6 1019.2 1018.8 0.0
23/07:30am 17.9 16.0 11.9 68 3.3 ENE 13 19 7 10 1018.8 1018.4 0.0
23/07:00am 15.2 14.4 11.2 77 2.2 ENE 6 9 3 5 1018.7 1018.3 0.0
23/06:30am 16.6 15.9 11.3 71 2.9 ESE 6 11 3 6 1018.2 1017.8 0.0
23/06:00am 15.0 13.5 10.6 75 2.3 SSE 9 11 5 6 1018.1 1017.7 0.0
23/05:30am 16.0 13.9 11.2 73 2.6 WSW 13 20 7 11 1017.8 1017.4 0.0
23/05:00am 16.2 15.3 11.2 72 2.7 NE 7 11 4 6 1016.9 1016.5 0.0
23/04:30am 16.4 15.6 10.9 70 3.0 SSE 6 9 3 5 1016.8 1016.4 0.0
23/04:00am 18.1 16.5 11.4 65 3.7 ESE 11 15 6 8 1017.0 1016.6 0.0
23/03:30am 15.9 15.0 10.7 71 2.8 SE 6 9 3 5 1017.7 1017.3 0.0
23/03:00am 16.3 15.4 10.8 70 3.0 SSE 6 9 3 5 1018.4 1018.0 0.0
23/02:30am 12.5 10.1 9.9 84 1.4 SW 13 15 7 8 1018.4 1018.0 0.0
23/02:00am 11.9 10.5 8.7 81 1.6 SSW 6 7 3 4 1017.8 1017.4 0.0
23/01:30am 11.7 10.3 8.7 82 1.5 SW 6 9 3 5 1018.0 1017.6 0.0
23/01:00am 12.7 12.5 9.2 79 1.8 CALM 0 0 0 0 1018.1 1017.7 0.0
23/12:30am 12.9 12.8 9.5 80 1.8 CALM 0 0 0 0 1018.4 1018.0 0.0
23/12:00am 13.3 13.2 9.5 78 2.0 CALM 0 0 0 0 1018.3 1017.9 0.0
 
Date/Time
EDT
Temp
°C
App
Temp
°C
Dew
Point
Rel
Hum
%
Delta-T
°C
Wind Press
QNH
hPa
Press
MSL
hPa
Rain
since 9 am
mm
Dir
 
Spd
km/h
Gust
km/h
Spd
kts
Gust
kts
22/11:30pm 13.5 13.4 9.6 77 2.0 CALM 0 0 0 0 1018.3 1017.9 0.0
22/11:00pm 13.7 13.7 9.7 77 2.1 CALM 0 0 0 0 1018.6 1018.2 0.0
22/10:30pm 14.5 14.6 10.1 75 2.3 CALM 0 7 0 4 1018.7 1018.3 0.0
22/10:00pm 14.9 14.8 9.3 69 2.9 CALM 0 0 0 0 1018.7 1018.3 0.0
22/09:30pm 15.8 15.2 9.0 64 3.5 SE 2 6 1 3 1018.6 1018.2 0.0
22/09:00pm 17.7 17.6 9.6 59 4.3 CALM 0 0 0 0 1018.3 1017.9 0.0
22/08:30pm 21.0 19.6 8.9 46 6.5 E 6 9 3 5 1017.9 1017.5 0.0
22/08:00pm 22.7 21.3 9.5 43 7.2 E 7 9 4 5 1017.5 1017.1 0.0
22/07:30pm 25.8 25.5 8.8 34 9.3 CALM 0 0 0 0 1017.5 1017.1 0.0
22/07:00pm 29.1 28.8 8.7 28 11.4 CALM 0 0 0 0 1017.5 1017.1 0.0
22/06:30pm 30.5 30.1 8.3 25 12.4 CALM 0 9 0 5 1017.4 1017.0 0.0
22/06:00pm 29.9 27.8 8.3 26 12.0 NW 9 13 5 7 1017.6 1017.2 0.0
22/05:30pm 30.1 28.6 8.5 26 12.1 N 6 15 3 8 1017.7 1017.3 0.0
22/05:00pm 30.1 27.9 7.9 25 12.3 N 9 15 5 8 1017.8 1017.4 0.0
22/04:30pm 30.0 27.7 9.0 27 11.8 N 11 22 6 12 1018.1 1017.7 0.0
22/04:00pm 29.8 27.1 8.8 27 11.8 NNW 13 20 7 11 1018.4 1018.0 0.0
22/03:30pm 29.3 26.2 8.9 28 11.4 N 15 26 8 14 1019.0 1018.6 0.0
22/03:00pm 29.2 26.2 9.3 29 11.2 N 15 22 8 12 1019.5 1019.1 0.0
22/02:30pm 28.2 25.3 9.5 31 10.5 N 15 26 8 14 1020.0 1019.6 0.0
22/02:00pm 28.0 25.1 9.8 32 10.3 NNE 15 32 8 17 1020.5 1020.1 0.0
22/01:30pm 27.1 23.1 10.3 35 9.5 NNE 22 32 12 17 1021.0 1020.6 0.0
22/01:00pm 26.4 22.6 9.7 35 9.3 NNE 20 32 11 17 1021.4 1021.0 0.0
22/12:30pm 26.6 22.6 10.3 36 9.2 N 22 28 12 15 1021.9 1021.6 0.0
22/12:00pm 24.9 20.3 9.6 38 8.5 NNE 24 35 13 19 1022.7 1022.3 0.0
22/11:30am 23.9 20.4 10.9 44 7.3 NE 20 30 11 16 1023.3 1022.9 0.0
22/11:00am 21.7 17.8 9.6 46 6.6 ENE 20 26 11 14 1023.9 1023.5 0.0
22/10:30am 20.9 17.2 10.1 50 5.9 NE 20 28 11 15 1024.4 1024.0 0.0
22/10:00am 19.4 15.8 9.9 54 5.1 NE 19 32 10 17 1024.8 1024.5 0.0
22/09:30am 17.6 13.6 9.2 58 4.4 NE 20 28 11 15 1024.9 1024.6 0.0
22/09:00am 16.4 12.4 9.1 62 3.8 ENE 20 26 11 14 1025.0 1024.7 0.0
22/08:30am 15.1 11.1 9.0 67 3.2 ENE 20 28 11 15 1024.9 1024.6 0.0
22/08:00am 14.1 10.3 9.1 72 2.6 E 19 24 10 13 1024.8 1024.5 0.0
22/07:30am 12.4 8.5 8.5 77 2.0 E 19 26 10 14 1024.6 1024.3 0.0
22/07:00am 11.3 7.7 8.2 81 1.5 E 17 24 9 13 1024.5 1024.1 0.0
22/06:30am 10.9 8.0 8.0 82 1.4 E 13 20 7 11 1024.7 1024.4 0.0
22/06:00am 10.9 7.6 8.0 82 1.4 E 15 19 8 10 1024.2 1023.8 0.0
22/05:30am 11.0 7.3 8.0 82 1.5 E 17 24 9 13 1023.8 1023.4 0.0
22/05:00am 11.0 7.7 8.2 83 1.4 ENE 15 20 8 11 1023.8 1023.4 0.0
22/04:30am 11.5 7.9 8.2 80 1.6 ENE 17 26 9 14 1023.8 1023.4 0.0
22/04:00am 11.9 8.3 8.2 78 1.8 ENE 17 22 9 12 1024.1 1023.7 0.0
22/03:30am 12.2 9.4 8.5 78 1.9 ENE 13 20 7 11 1024.1 1023.7 0.0
22/03:00am 12.5 8.6 8.6 77 2.0 E 19 26 10 14 1024.1 1023.7 0.0
22/02:30am 12.8 8.9 8.7 76 2.1 E 19 26 10 14 1024.4 1024.0 0.0
22/02:00am 13.1 9.0 8.8 75 2.2 E 20 28 11 15 1024.8 1024.5 0.0
22/01:30am 13.6 9.8 9.1 74 2.3 E 19 26 10 14 1025.2 1024.9 0.0
22/01:00am 13.8 9.8 9.0 73 2.5 E 20 26 11 14 1025.5 1025.2 0.0
22/12:30am 14.2 10.4 9.0 71 2.7 E 19 26 10 14 1026.1 1025.7 0.0
22/12:00am 14.7 10.8 9.3 70 2.8 E 20 32 11 17 1026.3 1025.9 0.0
 
Date/Time
EDT
Temp
°C
App
Temp
°C
Dew
Point
Rel
Hum
%
Delta-T
°C
Wind Press
QNH
hPa
Press
MSL
hPa
Rain
since 9 am
mm
Dir
 
Spd
km/h
Gust
km/h
Spd
kts
Gust
kts
21/11:30pm 15.2 11.3 9.3 68 3.1 E 20 30 11 16 1026.3 1025.9 0.0
21/11:00pm 15.6 11.9 9.5 67 3.2 E 19 28 10 15 1026.4 1026.0 0.0
21/10:30pm 16.1 12.2 9.5 65 3.5 E 20 28 11 15 1026.4 1026.0 0.0

Other Formats:

Comma delimited format used in spreadsheet applications
http://www.bom.gov.au/fwo/IDN60801/IDN60801.95722.axf

JavaScript Object Notation format (JSON) in row-major order
http://www.bom.gov.au/fwo/IDN60801/IDN60801.95722.json